Time;durP1;ratioP1;P1;durP2;ratioP2;P2;SDS_P1;SDS_P2;PMS_P1;PMS_P2;Temp;Humidity;BMP_temperature;BMP_pressure;BME280_temperature;BME280_humidity;BME280_pressure;Samples;Min_cycle;Max_cycle;Signal;HPM_P1;HPM_P2
2022/12/24 00:00:26;;;;;;;3.47;1.07;;;;;;;-145.69;100.00;52616.69;5068863;28;20205;-82
2022/12/24 00:02:53;;;;;;;2.17;1.07;;;;;;;-145.69;100.00;52616.69;5056457;28;20283;-82
2022/12/24 00:05:19;;;;;;;2.60;1.20;;;;;;;-145.69;100.00;52640.44;5059604;28;20199;-82
2022/12/24 00:07:45;;;;;;;6.67;1.30;;;;;;;-145.69;100.00;52626.59;5065743;28;20203;-82
2022/12/24 00:10:12;;;;;;;3.83;1.00;;;;;;;-145.69;100.00;52610.75;5055795;28;20206;-82
2022/12/24 00:12:40;;;;;;;3.80;1.20;;;;;;;-145.69;100.00;52618.66;5068159;28;20215;-81
2022/12/24 00:15:07;;;;;;;5.93;1.30;;;;;;;-145.69;100.00;52642.44;5071056;28;20206;-82
2022/12/24 00:17:34;;;;;;;4.47;1.30;;;;;;;-145.69;100.00;52630.53;5054409;28;20711;-80
2022/12/24 00:20:00;;;;;;;6.23;1.20;;;;;;;-145.69;100.00;52638.47;5054149;28;20196;-81
2022/12/24 00:22:27;;;;;;;4.43;1.30;;;;;;;-145.69;100.00;52630.53;5072580;28;20256;-81
2022/12/24 00:24:53;;;;;;;7.93;1.43;;;;;;;-145.69;100.00;52638.47;5064100;28;21014;-81
2022/12/24 00:27:20;;;;;;;5.13;0.90;;;;;;;-145.69;100.00;52630.53;5063726;28;20202;-82
2022/12/24 00:29:47;;;;;;;11.97;1.53;;;;;;;-145.69;100.00;52610.75;5054269;28;20223;-77
2022/12/24 00:32:14;;;;;;;4.90;1.40;;;;;;;-145.69;100.00;52614.72;5072450;28;20841;-81
2022/12/24 00:34:40;;;;;;;4.17;1.50;;;;;;;-145.69;100.00;52650.34;5073379;28;20657;-81
2022/12/24 00:37:07;;;;;;;7.87;1.53;;;;;;;-145.69;100.00;52630.53;5059097;28;20222;-80
2022/12/24 00:39:33;;;;;;;5.97;1.20;;;;;;;-145.69;100.00;52614.72;5071691;28;20203;-79
2022/12/24 00:42:00;;;;;;;7.97;1.03;;;;;;;-145.69;100.00;52628.56;5070514;28;20700;-82
2022/12/24 00:44:26;;;;;;;3.93;1.10;;;;;;;-145.69;100.00;52622.63;5070300;28;20195;-81
2022/12/24 00:46:54;;;;;;;5.10;1.20;;;;;;;-145.69;100.00;52620.66;5071289;28;20289;-81
2022/12/24 00:49:21;;;;;;;6.17;1.20;;;;;;;-145.69;100.00;52630.53;5071909;28;20195;-79
2022/12/24 00:51:47;;;;;;;2.50;1.27;;;;;;;-145.69;100.00;52624.59;5062912;28;20210;-81
2022/12/24 00:54:14;;;;;;;1.87;0.90;;;;;;;-145.69;100.00;52624.59;5063919;28;20201;-82
2022/12/24 00:56:41;;;;;;;3.47;1.37;;;;;;;-145.69;100.00;52654.31;5069582;28;20669;-82
2022/12/24 00:59:07;;;;;;;3.70;1.00;;;;;;;-145.69;100.00;52684.03;5065055;28;20199;-82
2022/12/24 01:01:34;;;;;;;7.47;1.33;;;;;;;-145.69;100.00;52642.44;5061548;28;20231;-82
2022/12/24 01:06:43;;;;;;;8.57;1.10;;;;;;;-145.69;100.00;52606.78;5053132;28;20199;-81
2022/12/24 01:09:10;;;;;;;6.83;1.57;;;;;;;-145.69;100.00;52660.25;5056377;28;20207;-81
2022/12/24 01:11:36;;;;;;;8.67;1.23;;;;;;;-145.69;100.00;52586.97;5072435;28;20212;-82
2022/12/24 01:14:03;;;;;;;4.60;1.07;;;;;;;-145.69;100.00;52634.50;5064447;28;20203;-79
2022/12/24 01:16:29;;;;;;;3.70;1.13;;;;;;;-145.69;100.00;52614.72;5069463;28;20455;-82
2022/12/24 01:18:56;;;;;;;3.87;1.30;;;;;;;-145.69;100.00;52620.66;5068136;28;20202;-79
2022/12/24 01:21:24;;;;;;;6.47;1.10;;;;;;;-145.69;100.00;52624.59;5073270;28;20226;-80
2022/12/24 01:23:50;;;;;;;8.27;1.30;;;;;;;-145.69;100.00;52610.75;5067483;28;20199;-79
2022/12/24 01:26:16;;;;;;;4.73;1.20;;;;;;;-145.69;100.00;52626.59;5065742;28;20669;-80
2022/12/24 01:28:43;;;;;;;9.97;1.67;;;;;;;-145.69;100.00;52618.66;5073302;28;20199;-80
2022/12/24 01:31:11;;;;;;;6.77;1.57;;;;;;;-145.69;100.00;52638.47;5064648;28;20198;-80
2022/12/24 01:33:37;;;;;;;4.37;1.10;;;;;;;-145.69;100.00;52656.28;5061892;28;20231;-81
2022/12/24 01:36:04;;;;;;;4.03;1.30;;;;;;;-145.69;100.00;52644.41;5068967;28;20578;-80
2022/12/24 01:38:32;;;;;;;5.13;1.17;;;;;;;-145.69;100.00;52630.53;5057535;28;20210;-79
2022/12/24 01:43:42;;;;;;;8.53;1.40;;;;;;;-145.69;100.00;52622.63;5072425;28;20198;-81
2022/12/24 01:46:15;;;;;;;4.77;1.17;;;;;;;-145.69;100.00;52642.44;5069592;28;20670;-81
2022/12/24 01:48:46;;;;;;;6.38;1.30;;;;;;;-145.69;100.00;52622.63;5063373;28;20458;-79
2022/12/24 01:51:24;;;;;;;5.43;1.10;;;;;;;-145.69;100.00;52636.50;5053120;28;20203;-80
2022/12/24 01:54:02;;;;;;;5.07;1.20;;;;;;;-145.69;100.00;52634.50;5069740;28;20202;-80
2022/12/24 01:56:30;;;;;;;2.77;1.10;;;;;;;-145.69;100.00;52652.34;5059726;28;20203;-81
2022/12/24 01:59:00;;;;;;;9.50;1.20;;;;;;;-145.69;100.00;52636.50;5054268;28;20203;-81
2022/12/24 02:01:27;;;;;;;6.60;1.30;;;;;;;-145.69;100.00;52622.63;5062110;28;20226;-80
2022/12/24 02:03:53;;;;;;;8.13;1.30;;;;;;;-145.69;100.00;52630.53;5073217;28;20205;-81
2022/12/24 02:06:21;;;;;;;9.17;1.50;;;;;;;-145.69;100.00;52632.53;5068884;28;20229;-80
2022/12/24 02:08:48;;;;;;;6.63;1.70;;;;;;;-145.69;100.00;52622.63;5059530;28;20198;-81
2022/12/24 02:11:18;;;;;;;8.90;1.70;;;;;;;-145.69;100.00;52624.59;5054709;28;20203;-80
2022/12/24 02:13:48;;;;;;;5.17;1.60;;;;;;;-145.69;100.00;52626.59;5056301;28;20202;-80
2022/12/24 02:16:24;;;;;;;6.87;1.10;;;;;;;-145.69;100.00;52624.59;5072209;28;20207;-81
2022/12/24 02:18:57;;;;;;;6.43;1.40;;;;;;;-145.69;100.00;52610.75;5070184;28;20664;-81
2022/12/24 02:21:37;;;;;;;6.10;1.37;;;;;;;-145.69;100.00;52638.47;5062784;28;20198;-81
2022/12/24 02:24:36;;;;;;;5.40;1.03;;;;;;;-145.69;100.00;52644.41;5077107;28;20248;-82
2022/12/24 02:27:17;;;;;;;6.50;1.50;;;;;;;-145.69;100.00;52602.81;5067527;28;20206;-81
2022/12/24 02:30:01;;;;;;;4.33;1.40;;;;;;;-145.69;100.00;52594.91;5077565;28;20226;-82
2022/12/24 02:32:35;;;;;;;6.40;1.30;;;;;;;-145.69;100.00;52618.66;5069028;28;20195;-80
2022/12/24 02:35:07;;;;;;;8.13;1.53;;;;;;;-145.69;100.00;52608.75;5073697;28;20202;-80
2022/12/24 02:37:38;;;;;;;8.00;1.93;;;;;;;-145.69;100.00;52602.81;5070963;28;20279;-81
2022/12/24 02:40:10;;;;;;;7.53;1.40;;;;;;;-145.69;100.00;52608.75;5065064;28;20207;-81
2022/12/24 02:42:40;;;;;;;8.33;2.00;;;;;;;-145.69;100.00;52632.53;5056195;28;20230;-81
2022/12/24 02:45:10;;;;;;;8.67;1.60;;;;;;;-145.69;100.00;52622.63;5064502;28;20223;-81
2022/12/24 02:47:39;;;;;;;6.70;1.50;;;;;;;-145.69;100.00;52614.72;5072879;28;20209;-81
2022/12/24 02:50:08;;;;;;;5.80;1.47;;;;;;;-145.69;100.00;52636.50;5075605;28;20199;-81
2022/12/24 02:52:37;;;;;;;6.90;1.13;;;;;;;-145.69;100.00;52579.06;5075050;28;20217;-80
2022/12/24 02:55:07;;;;;;;10.47;1.40;;;;;;;-145.69;100.00;52620.66;5076069;28;20210;-81
2022/12/24 02:57:49;;;;;;;8.70;1.93;;;;;;;-145.69;100.00;52608.75;5073952;28;20199;-80
2022/12/24 03:00:19;;;;;;;8.20;1.80;;;;;;;-145.69;100.00;52646.41;5076220;28;20198;-81
2022/12/24 03:03:09;;;;;;;7.53;1.37;;;;;;;-145.69;100.00;52668.19;5075503;28;20624;-81
2022/12/24 03:05:42;;;;;;;9.03;1.67;;;;;;;-145.69;100.00;52626.59;5064606;28;20199;-81
2022/12/24 03:08:15;;;;;;;11.10;2.70;;;;;;;-145.69;100.00;52636.50;5071237;28;20248;-80
2022/12/24 03:10:51;;;;;;;8.20;1.47;;;;;;;-145.69;100.00;52622.63;5075384;28;20206;-81
2022/12/24 03:13:20;;;;;;;8.70;1.53;;;;;;;-145.69;100.00;52634.50;5057115;28;20219;-80
2022/12/24 03:15:50;;;;;;;7.00;2.40;;;;;;;-145.69;100.00;52592.91;5065567;28;20221;-81
2022/12/24 03:18:19;;;;;;;8.07;1.40;;;;;;;-145.69;100.00;52638.47;5057064;28;20207;-80
2022/12/24 03:20:50;;;;;;;11.67;2.23;;;;;;;-145.69;100.00;52654.31;5072863;28;20199;-82
2022/12/24 03:23:17;;;;;;;5.13;1.33;;;;;;;-145.69;100.00;52644.41;5065673;28;20231;-83
2022/12/24 03:25:44;;;;;;;4.80;1.10;;;;;;;-145.69;100.00;52628.56;5066740;28;20230;-82
2022/12/24 03:28:14;;;;;;;6.03;1.40;;;;;;;-145.69;100.00;52616.69;5080297;28;20194;-82
2022/12/24 03:30:42;;;;;;;8.43;1.70;;;;;;;-145.69;100.00;52618.66;5071721;28;20202;-82
2022/12/24 03:33:10;;;;;;;8.20;1.70;;;;;;;-145.69;100.00;52636.50;5084082;28;20194;-86
2022/12/24 03:35:36;;;;;;;13.77;1.80;;;;;;;-145.69;100.00;52600.84;5083829;28;20202;-82
2022/12/24 03:38:03;;;;;;;6.83;1.80;;;;;;;-145.69;100.00;52630.53;5076016;28;20227;-82
2022/12/24 03:40:29;;;;;;;7.77;1.53;;;;;;;-145.69;100.00;52634.50;5078238;28;20207;-81
2022/12/24 03:42:56;;;;;;;8.23;1.50;;;;;;;-145.69;100.00;52622.63;5076184;28;20270;-82
2022/12/24 03:45:22;;;;;;;12.63;1.53;;;;;;;-145.69;100.00;52646.41;5076990;28;20199;-82
2022/12/24 03:47:49;;;;;;;5.57;1.60;;;;;;;-145.69;100.00;52662.22;5085244;28;20210;-82
2022/12/24 03:50:17;;;;;;;4.47;1.50;;;;;;;-145.69;100.00;52632.53;5082966;28;20199;-81
2022/12/24 03:52:43;;;;;;;9.20;1.63;;;;;;;-145.69;100.00;52634.50;5077304;28;20206;-81
2022/12/24 03:55:10;;;;;;;7.70;1.57;;;;;;;-145.69;100.00;52652.34;5082575;28;20225;-81
2022/12/24 03:57:37;;;;;;;6.17;1.57;;;;;;;-145.69;100.00;52598.84;5072441;28;20199;-82
2022/12/24 04:00:04;;;;;;;3.03;1.20;;;;;;;-145.69;100.00;52642.44;5077537;28;20210;-81
2022/12/24 04:02:30;;;;;;;6.10;1.20;;;;;;;-145.69;100.00;52624.59;5064057;28;20292;-80
2022/12/24 04:04:57;;;;;;;5.13;1.43;;;;;;;-145.69;100.00;52632.53;5069640;28;20200;-81
2022/12/24 04:07:25;;;;;;;7.27;1.53;;;;;;;-145.69;100.00;52654.31;5075335;28;20225;-80
2022/12/24 04:09:51;;;;;;;5.20;1.40;;;;;;;-145.69;100.00;52658.28;5074806;28;20194;-81
2022/12/24 04:12:18;;;;;;;5.13;1.30;;;;;;;-145.69;100.00;52646.41;5061551;28;20681;-81
2022/12/24 04:14:44;;;;;;;13.17;2.10;;;;;;;-145.69;100.00;52668.19;5055549;28;20204;-81
2022/12/24 04:17:10;;;;;;;2.70;1.20;;;;;;;-145.69;100.00;52620.66;5057752;28;20203;-81
2022/12/24 04:19:37;;;;;;;4.67;1.33;;;;;;;-145.69;100.00;52636.50;5055507;28;20203;-80
2022/12/24 04:22:03;;;;;;;8.77;1.50;;;;;;;-145.69;100.00;52632.53;5055370;28;20239;-81
2022/12/24 04:24:31;;;;;;;8.70;1.40;;;;;;;-145.69;100.00;52674.13;5072743;28;20202;-80
2022/12/24 04:26:57;;;;;;;14.10;1.73;;;;;;;-145.69;100.00;52630.53;5059565;28;20673;-81
2022/12/24 04:29:24;;;;;;;13.37;2.00;;;;;;;-145.69;100.00;52634.50;5055898;28;20218;-81
2022/12/24 04:31:50;;;;;;;5.67;1.40;;;;;;;-145.69;100.00;52662.22;5064275;28;20911;-81
2022/12/24 04:34:17;;;;;;;5.73;1.57;;;;;;;-145.69;100.00;52642.44;5074146;28;20202;-80
2022/12/24 04:36:43;;;;;;;11.93;1.50;;;;;;;-145.69;100.00;52604.81;5060193;28;20720;-80
2022/12/24 04:39:09;;;;;;;9.03;1.67;;;;;;;-145.69;100.00;52640.44;5054101;28;20207;-80
2022/12/24 04:41:37;;;;;;;7.50;1.27;;;;;;;-145.69;100.00;52660.25;5062634;28;20202;-80
2022/12/24 04:44:04;;;;;;;6.73;1.70;;;;;;;-145.69;100.00;52610.75;5069953;28;20284;-80
2022/12/24 04:46:31;;;;;;;8.20;1.43;;;;;;;-145.69;100.00;52642.44;5054342;28;20207;-80
2022/12/24 04:48:58;;;;;;;5.60;1.30;;;;;;;-145.69;100.00;52630.53;5056390;28;20199;-79
2022/12/24 04:51:26;;;;;;;3.43;1.10;;;;;;;-145.69;100.00;52646.41;5057850;28;20202;-80
2022/12/24 04:53:53;;;;;;;7.37;1.60;;;;;;;-145.69;100.00;52644.41;5063673;28;20207;-80
2022/12/24 04:56:21;;;;;;;4.47;1.60;;;;;;;-145.69;100.00;52622.63;5053899;28;20207;-79
2022/12/24 04:58:49;;;;;;;5.13;1.20;;;;;;;-145.69;100.00;52636.50;5064273;28;20657;-79
2022/12/24 05:01:18;;;;;;;5.47;1.37;;;;;;;-145.69;100.00;52614.72;5065925;28;20207;-79
2022/12/24 05:03:45;;;;;;;6.67;1.37;;;;;;;-145.69;100.00;52626.59;5072962;28;20225;-80
2022/12/24 05:06:14;;;;;;;5.47;1.43;;;;;;;-145.69;100.00;52654.31;5057065;28;20210;-79
2022/12/24 05:08:41;;;;;;;4.47;1.20;;;;;;;-145.69;100.00;52636.50;5053298;28;20199;-79
2022/12/24 05:11:07;;;;;;;5.10;1.17;;;;;;;-145.69;100.00;52634.50;5060883;28;20202;-79
2022/12/24 05:13:34;;;;;;;9.00;1.70;;;;;;;-145.69;100.00;52624.59;5057068;28;20195;-80
2022/12/24 05:16:02;;;;;;;3.73;1.50;;;;;;;-145.69;100.00;52608.75;5070769;28;20233;-79
2022/12/24 05:18:28;;;;;;;5.40;1.23;;;;;;;-145.69;100.00;52634.50;5054448;28;20206;-80
2022/12/24 05:20:55;;;;;;;9.57;1.23;;;;;;;-145.69;100.00;52640.44;5073136;28;20209;-79
2022/12/24 05:26:23;;;;;;;11.30;1.93;;;;;;;-145.69;100.00;52624.59;5065311;28;20351;-80
2022/12/24 05:28:51;;;;;;;9.03;1.30;;;;;;;-145.69;100.00;52602.81;5055820;28;20206;-80
2022/12/24 05:31:19;;;;;;;5.00;1.40;;;;;;;-145.69;100.00;52598.84;5066494;28;20536;-81
2022/12/24 05:33:46;;;;;;;6.20;1.40;;;;;;;-145.69;100.00;52626.59;5066917;28;20207;-81
2022/12/24 05:36:13;;;;;;;8.90;1.37;;;;;;;-145.69;100.00;52620.66;5076137;28;20234;-82
2022/12/24 05:38:39;;;;;;;6.53;1.57;;;;;;;-145.69;100.00;52604.81;5075836;28;20202;-81
2022/12/24 05:41:08;;;;;;;10.63;1.20;;;;;;;-145.69;100.00;52646.41;5052927;28;20200;-81
2022/12/24 05:43:34;;;;;;;11.93;1.47;;;;;;;-145.69;100.00;52586.97;5053246;28;20223;-81
2022/12/24 05:46:02;;;;;;;5.57;1.13;;;;;;;-145.69;100.00;52614.72;5059763;28;20214;-81
2022/12/24 05:48:29;;;;;;;9.70;1.73;;;;;;;-145.69;100.00;52614.72;5071602;28;20561;-79
2022/12/24 05:50:56;;;;;;;6.90;1.30;;;;;;;-145.69;100.00;52606.78;5060209;28;20226;-80
2022/12/24 05:53:23;;;;;;;10.43;1.53;;;;;;;-145.69;100.00;52610.75;5052366;28;20203;-80
2022/12/24 05:55:49;;;;;;;3.93;1.40;;;;;;;-145.69;100.00;52602.81;5071998;28;20203;-81
2022/12/24 05:58:16;;;;;;;8.30;1.43;;;;;;;-145.69;100.00;52614.72;5069960;28;20203;-80
2022/12/24 06:00:43;;;;;;;7.40;1.40;;;;;;;-145.69;100.00;52620.66;5070249;28;20231;-81
2022/12/24 06:03:10;;;;;;;11.23;1.53;;;;;;;-145.69;100.00;52630.53;5072932;28;20249;-80
2022/12/24 06:05:40;;;;;;;5.73;1.77;;;;;;;-145.69;100.00;52630.53;5071465;28;20218;-80
2022/12/24 06:08:06;;;;;;;11.93;1.77;;;;;;;-145.69;100.00;52652.34;5065858;28;20195;-81
2022/12/24 06:10:33;;;;;;;12.20;1.73;;;;;;;-145.69;100.00;52614.72;5067849;28;20206;-81
2022/12/24 06:12:59;;;;;;;10.73;1.40;;;;;;;-145.69;100.00;52622.63;5071793;28;20211;-82
2022/12/24 06:15:25;;;;;;;5.07;1.13;;;;;;;-145.69;100.00;52590.94;5074334;28;20222;-82
2022/12/24 06:17:52;;;;;;;5.03;1.37;;;;;;;-145.69;100.00;52636.50;5070987;28;20657;-81
2022/12/24 06:20:18;;;;;;;12.40;1.73;;;;;;;-145.69;100.00;52624.59;5073978;28;20570;-81
2022/12/24 06:22:46;;;;;;;9.43;1.63;;;;;;;-145.69;100.00;52634.50;5075082;28;20237;-82
2022/12/24 06:25:12;;;;;;;8.57;1.70;;;;;;;-145.69;100.00;52579.06;5059084;28;20203;-81
2022/12/24 06:27:39;;;;;;;10.00;1.77;;;;;;;-145.69;100.00;52632.53;5067297;28;20206;-80
2022/12/24 06:30:07;;;;;;;9.90;1.43;;;;;;;-145.69;100.00;52622.63;5061936;28;20207;-81
2022/12/24 06:32:33;;;;;;;7.97;1.40;;;;;;;-145.69;100.00;52644.41;5053515;28;20199;-81
2022/12/24 06:34:59;;;;;;;7.73;1.53;;;;;;;-145.69;100.00;52622.63;5065312;28;20202;-81
2022/12/24 06:37:26;;;;;;;10.70;2.17;;;;;;;-145.69;100.00;52614.72;5060175;28;20243;-81
2022/12/24 06:39:54;;;;;;;8.87;1.80;;;;;;;-145.69;100.00;52618.66;5053302;28;20248;-81
2022/12/24 06:42:20;;;;;;;12.73;1.97;;;;;;;-145.69;100.00;52634.50;5070550;28;20206;-81
2022/12/24 06:44:46;;;;;;;13.67;2.03;;;;;;;-145.69;100.00;52630.53;5065902;28;20227;-81
2022/12/24 06:47:13;;;;;;;15.27;1.90;;;;;;;-145.69;100.00;52616.69;5064298;28;20581;-82
2022/12/24 06:49:39;;;;;;;13.63;1.87;;;;;;;-145.69;100.00;52634.50;5073049;28;20202;-82
2022/12/24 06:52:06;;;;;;;6.87;1.70;;;;;;;-145.69;100.00;52638.47;5073732;28;20206;-82
2022/12/24 06:54:32;;;;;;;10.33;2.00;;;;;;;-145.69;100.00;52618.66;5073078;28;20538;-81
2022/12/24 06:57:00;;;;;;;8.43;1.80;;;;;;;-145.69;100.00;52640.44;5070281;28;20195;-82
2022/12/24 06:59:26;;;;;;;11.80;1.90;;;;;;;-145.69;100.00;52628.56;5061335;28;20195;-81
2022/12/24 07:01:52;;;;;;;9.53;2.40;;;;;;;-145.69;100.00;52622.63;5067113;28;20211;-81
2022/12/24 07:04:19;;;;;;;14.63;2.03;;;;;;;-145.69;100.00;52622.63;5053066;28;20234;-82
2022/12/24 07:06:45;;;;;;;11.43;2.03;;;;;;;-145.69;100.00;52652.34;5070680;28;20195;-81
2022/12/24 07:09:13;;;;;;;8.50;1.60;;;;;;;-145.69;100.00;52630.53;5075945;28;20199;-81
2022/12/24 07:11:40;;;;;;;16.53;2.07;;;;;;;-145.69;100.00;52662.22;5075146;28;20607;-81
2022/12/24 07:14:08;;;;;;;12.87;1.93;;;;;;;-145.69;100.00;52630.53;5075469;28;20207;-81
2022/12/24 07:16:34;;;;;;;6.63;1.90;;;;;;;-145.69;100.00;52634.50;5069106;28;20199;-82
2022/12/24 07:19:01;;;;;;;9.10;2.43;;;;;;;-145.69;100.00;52650.34;5075505;28;20206;-81
2022/12/24 07:21:27;;;;;;;10.73;2.27;;;;;;;-145.69;100.00;52614.72;5064643;28;20203;-80
2022/12/24 07:23:54;;;;;;;7.20;1.90;;;;;;;-145.69;100.00;52646.41;5069574;28;20226;-82
2022/12/24 07:26:20;;;;;;;11.80;2.10;;;;;;;-145.69;100.00;52630.53;5073804;28;20201;-83
2022/12/24 07:28:46;;;;;;;7.93;1.47;;;;;;;-145.69;100.00;52610.75;5073513;28;20206;-81
2022/12/24 07:31:14;;;;;;;16.07;1.77;;;;;;;-145.69;100.00;52600.84;5060600;28;20199;-82
2022/12/24 07:33:41;;;;;;;13.33;1.90;;;;;;;-145.69;100.00;52602.81;5078137;28;20191;-83
2022/12/24 07:36:10;;;;;;;13.50;1.43;;;;;;;-145.69;100.00;52638.47;5061730;28;20616;-82
2022/12/24 07:38:38;;;;;;;6.83;1.60;;;;;;;-145.69;100.00;52634.50;5071422;28;20646;-82
2022/12/24 07:41:04;;;;;;;8.43;1.60;;;;;;;-145.69;100.00;52610.75;5076338;28;20194;-82
2022/12/24 07:43:32;;;;;;;7.30;1.50;;;;;;;-145.69;100.00;52632.53;5072467;28;20222;-82
2022/12/24 07:45:59;;;;;;;8.83;2.23;;;;;;;-145.69;100.00;52622.63;5068903;28;20663;-82
2022/12/24 07:48:29;;;;;;;14.03;2.30;;;;;;;-145.69;100.00;52612.72;5075187;28;20207;-82
2022/12/24 07:50:56;;;;;;;14.13;2.30;;;;;;;-145.69;100.00;52618.66;5076150;28;20202;-83
2022/12/24 07:53:24;;;;;;;16.07;1.93;;;;;;;-145.69;100.00;52640.44;5069539;28;20670;-82
2022/12/24 07:55:50;;;;;;;10.60;2.07;;;;;;;-145.69;100.00;52626.59;5066287;28;20195;-83
2022/12/24 07:58:17;;;;;;;12.40;2.23;;;;;;;-145.69;100.00;52596.88;5065850;28;20203;-83
2022/12/24 08:00:44;;;;;;;11.27;1.60;;;;;;;-145.69;100.00;52581.03;5059940;28;20198;-83
2022/12/24 08:03:16;;;;;;;5.13;1.60;;;;;;;-145.69;100.00;52592.91;5066728;28;20207;-83
2022/12/24 08:05:44;;;;;;;9.30;1.57;;;;;;;-145.69;100.00;52614.72;5054899;28;20203;-83
2022/12/24 08:08:11;;;;;;;13.57;2.37;;;;;;;-145.69;100.00;52636.50;5063816;28;20199;-83
2022/12/24 08:10:38;;;;;;;11.43;1.90;;;;;;;-145.69;100.00;52579.06;5056796;28;20199;-82
2022/12/24 08:13:05;;;;;;;8.93;2.00;;;;;;;-145.69;100.00;52592.91;5074389;28;20195;-83
2022/12/24 08:15:32;;;;;;;14.37;2.00;;;;;;;-145.69;100.00;52622.63;5074979;28;20199;-83
2022/12/24 08:17:59;;;;;;;15.00;2.30;;;;;;;-145.69;100.00;52620.66;5074332;28;20197;-82
2022/12/24 08:20:25;;;;;;;8.50;2.50;;;;;;;-145.69;100.00;52618.66;5074339;28;20201;-82
2022/12/24 08:22:54;;;;;;;10.23;1.90;;;;;;;-145.69;100.00;52614.72;5063605;28;20458;-82
2022/12/24 08:25:20;;;;;;;12.27;3.10;;;;;;;-145.69;100.00;52600.84;5055412;28;20228;-83
2022/12/24 08:27:47;;;;;;;15.20;2.73;;;;;;;-145.69;100.00;52628.56;5055160;28;20212;-82
2022/12/24 08:30:14;;;;;;;9.30;1.70;;;;;;;-145.69;100.00;52614.72;5054993;28;20210;-83
2022/12/24 08:32:41;;;;;;;8.27;2.10;;;;;;;-145.69;100.00;52592.91;5065253;28;20206;-82
2022/12/24 08:35:08;;;;;;;10.87;2.10;;;;;;;-145.69;100.00;52632.53;5074179;28;20650;-82
2022/12/24 08:37:34;;;;;;;11.03;2.30;;;;;;;-145.69;100.00;52610.75;5073421;28;20235;-81
2022/12/24 08:40:02;;;;;;;16.17;2.87;;;;;;;-145.69;100.00;52622.63;5074840;28;20688;-81
2022/12/24 08:42:29;;;;;;;12.13;2.17;;;;;;;-145.69;100.00;52602.81;5074381;28;20569;-82
2022/12/24 08:44:55;;;;;;;10.50;2.30;;;;;;;-145.69;100.00;52594.91;5072213;28;20225;-82
2022/12/24 08:47:22;;;;;;;13.60;1.70;;;;;;;-145.69;100.00;52608.75;5072430;28;20199;-83
2022/12/24 08:49:48;;;;;;;12.23;2.03;;;;;;;-145.69;100.00;52622.63;5064233;28;20227;-84
2022/12/24 08:52:15;;;;;;;8.40;1.83;;;;;;;-145.69;100.00;52598.84;5060564;28;20543;-82
2022/12/24 08:54:41;;;;;;;9.70;1.77;;;;;;;-145.69;100.00;52598.84;5073480;28;20199;-82
2022/12/24 08:57:09;;;;;;;9.93;2.10;;;;;;;-145.69;100.00;52610.75;5074543;28;20626;-82
2022/12/24 08:59:36;;;;;;;9.80;2.17;;;;;;;-145.69;100.00;52583.00;5069298;28;20195;-82
2022/12/24 09:02:02;;;;;;;17.37;2.23;;;;;;;-145.69;100.00;52590.94;5064932;28;20202;-82
2022/12/24 09:04:29;;;;;;;8.87;1.97;;;;;;;-145.69;100.00;52594.91;5069375;28;20233;-83
2022/12/24 09:06:55;;;;;;;8.83;1.50;;;;;;;-145.69;100.00;52575.09;5067216;28;20211;-83
2022/12/24 09:09:21;;;;;;;8.17;2.17;;;;;;;-145.69;100.00;52602.81;5072756;28;20203;-83
2022/12/24 09:11:48;;;;;;;7.77;1.90;;;;;;;-145.69;100.00;52592.91;5068509;28;20204;-82
2022/12/24 09:14:16;;;;;;;9.80;1.70;;;;;;;-145.69;100.00;52626.59;5075263;28;20202;-81
2022/12/24 09:16:42;;;;;;;10.60;2.00;;;;;;;-145.69;100.00;52567.16;5074965;28;20198;-81
2022/12/24 09:19:09;;;;;;;8.93;1.60;;;;;;;-145.69;100.00;52577.06;5073190;28;20688;-81
2022/12/24 09:21:35;;;;;;;12.17;1.63;;;;;;;-145.69;100.00;52583.00;5062220;28;20199;-81
2022/12/24 09:24:04;;;;;;;7.93;1.70;;;;;;;-145.69;100.00;52600.84;5084514;28;20222;-80
2022/12/24 09:26:31;;;;;;;9.70;1.97;;;;;;;-145.69;100.00;52596.88;5074731;28;20202;-80
2022/12/24 09:28:58;;;;;;;13.60;2.23;;;;;;;-145.69;100.00;52585.00;5062335;28;20214;-80
2022/12/24 09:31:26;;;;;;;6.90;1.83;;;;;;;-145.69;100.00;52577.06;5060749;28;20206;-80
2022/12/24 09:33:52;;;;;;;15.63;2.70;;;;;;;-145.69;100.00;52577.06;5067068;28;20207;-80
2022/12/24 09:36:20;;;;;;;9.27;1.80;;;;;;;-145.69;100.00;52585.00;5068804;28;20317;-80
2022/12/24 09:38:47;;;;;;;9.67;1.90;;;;;;;-145.69;100.00;52594.91;5074287;28;20565;-81
2022/12/24 09:41:16;;;;;;;12.10;2.50;;;;;;;-145.69;100.00;52581.03;5067810;28;20200;-80
2022/12/24 09:43:47;;;;;;;14.20;2.17;;;;;;;-145.69;100.00;52563.22;5053536;28;20203;-79
2022/12/24 09:46:21;;;;;;;13.30;3.57;;;;;;;-145.69;100.00;52561.22;5052800;28;20199;-80
2022/12/24 09:48:53;;;;;;;13.53;2.63;;;;;;;-145.69;100.00;52583.00;5072587;28;20202;-80
2022/12/24 09:51:27;;;;;;;14.73;2.60;;;;;;;-145.69;100.00;52586.97;5072522;28;20257;-80
2022/12/24 09:53:57;;;;;;;15.90;2.57;;;;;;;-145.69;100.00;52600.84;5072742;28;20206;-80
2022/12/24 09:56:26;;;;;;;13.07;2.00;;;;;;;-145.69;100.00;52586.97;5064716;28;20207;-82
2022/12/24 09:58:58;;;;;;;14.87;2.47;;;;;;;-145.69;100.00;52559.25;5064094;28;20233;-82
2022/12/24 10:01:25;;;;;;;11.50;2.50;;;;;;;-145.69;100.00;52588.97;5065211;28;20202;-82
2022/12/24 10:03:53;;;;;;;10.50;2.57;;;;;;;-145.69;100.00;52569.16;5055821;28;20191;-81
2022/12/24 10:06:23;;;;;;;8.40;1.90;;;;;;;-145.69;100.00;52579.06;5068433;28;20199;-81
2022/12/24 10:09:04;;;;;;;10.40;1.97;;;;;;;-145.69;100.00;52596.88;5072746;28;20206;-81
2022/12/24 10:11:42;;;;;;;17.87;2.60;;;;;;;-145.69;100.00;52583.00;5070960;28;20210;-81
2022/12/24 10:14:21;;;;;;;8.43;1.47;;;;;;;-145.69;100.00;52602.81;5073052;28;20207;-82
2022/12/24 10:16:56;;;;;;;8.57;1.67;;;;;;;-145.69;100.00;52575.09;5071621;28;20206;-82
2022/12/24 10:19:37;;;;;;;11.10;2.37;;;;;;;-145.69;100.00;52606.78;5070668;28;20202;-81
2022/12/24 10:22:20;;;;;;;13.67;2.27;;;;;;;-145.69;100.00;52559.25;5073304;28;20202;-83
2022/12/24 10:24:53;;;;;;;9.43;1.60;;;;;;;-145.69;100.00;52567.16;5074073;28;20225;-83
2022/12/24 10:27:24;;;;;;;8.77;2.45;;;;;;;-145.69;100.00;52575.09;5074851;28;20445;-80
2022/12/24 10:29:57;;;;;;;10.73;1.77;;;;;;;-145.69;100.00;52569.16;5072883;28;20203;-81
2022/12/24 10:32:28;;;;;;;7.97;1.80;;;;;;;-145.69;100.00;52606.78;5081578;28;20210;-81
2022/12/24 10:35:00;;;;;;;8.50;2.33;;;;;;;-145.69;100.00;52547.38;5076631;28;20310;-81
2022/12/24 10:37:29;;;;;;;10.40;2.22;;;;;;;-145.69;100.00;52563.22;5082674;28;20260;-82
2022/12/24 10:39:56;;;;;;;9.10;1.85;;;;;;;-145.69;100.00;52551.31;5072305;28;20205;-81
2022/12/24 10:42:30;;;;;;;10.15;1.60;;;;;;;-145.69;100.00;52583.00;5073855;28;20229;-82
2022/12/24 10:45:03;;;;;;;10.57;2.28;;;;;;;-145.69;100.00;52559.25;5076851;28;20233;-82
2022/12/24 10:47:33;;;;;;;9.80;2.05;;;;;;;-145.69;100.00;52594.91;5078158;28;20209;-82
2022/12/24 10:50:05;;;;;;;13.40;2.22;;;;;;;-145.69;100.00;52565.19;5071845;28;20203;-82
2022/12/24 10:52:36;;;;;;;13.52;2.58;;;;;;;-145.69;100.00;52596.88;5067904;28;20198;-81
2022/12/24 10:55:12;;;;;;;11.65;2.40;;;;;;;-145.69;100.00;52590.94;5068064;28;20229;-81
2022/12/24 10:57:40;;;;;;;10.33;1.97;;;;;;;-145.69;100.00;52579.06;5072947;28;20195;-82
2022/12/24 11:00:18;;;;;;;6.97;1.83;;;;;;;-145.69;100.00;52583.00;5070920;28;20658;-81
2022/12/24 11:02:44;;;;;;;12.93;2.10;;;;;;;-145.69;100.00;52547.38;5069641;28;20203;-82
2022/12/24 11:05:28;;;;;;;8.87;2.10;;;;;;;-145.69;100.00;52559.25;5064614;28;20222;-82
2022/12/24 11:08:00;;;;;;;10.25;2.78;;;;;;;-145.69;100.00;52555.28;5075635;28;20557;-81
2022/12/24 11:10:26;;;;;;;12.57;2.17;;;;;;;-145.69;100.00;52547.38;5059598;28;20554;-82
2022/12/24 11:12:53;;;;;;;13.07;2.00;;;;;;;-145.69;100.00;52581.03;5061752;28;20194;-82
2022/12/24 11:15:33;;;;;;;9.90;1.73;;;;;;;-145.69;100.00;52543.41;5076434;28;20849;-81
2022/12/24 11:18:13;;;;;;;10.37;1.63;;;;;;;-145.69;100.00;52594.91;5068629;28;20203;-81
2022/12/24 11:20:51;;;;;;;4.72;1.23;;;;;;;-145.69;100.00;52561.22;5057013;28;20210;-82